createdAt,value
2017-12-21T00:00:41.270Z,23.87
2017-12-21T00:03:09.747Z,23.02
2017-12-21T00:05:38.127Z,22.77
2017-12-21T00:08:06.428Z,22.10
2017-12-21T00:10:35.608Z,22.42
2017-12-21T00:13:03.989Z,24.92
2017-12-21T00:18:30.022Z,21.02
2017-12-21T00:24:12.985Z,21.45
2017-12-21T00:26:41.608Z,19.70
2017-12-21T00:29:10.448Z,18.40
2017-12-21T00:31:39.849Z,18.95
2017-12-21T00:34:09.028Z,19.05
2017-12-21T00:36:38.389Z,19.60
2017-12-21T00:39:07.028Z,17.87
2017-12-21T00:41:36.328Z,15.77
2017-12-21T00:44:05.729Z,18.48
2017-12-21T00:46:35.148Z,15.35
2017-12-21T00:49:04.629Z,16.55
2017-12-21T00:51:34.529Z,17.45
2017-12-21T00:54:03.028Z,14.38
2017-12-21T00:56:32.130Z,17.90
2017-12-21T00:59:01.289Z,15.88
2017-12-21T01:01:29.789Z,16.42
2017-12-21T01:03:58.249Z,13.77
2017-12-21T01:06:26.548Z,14.30
2017-12-21T01:08:55.609Z,15.65
2017-12-21T01:11:23.769Z,15.82
2017-12-21T01:13:52.189Z,15.80
2017-12-21T01:16:20.549Z,13.90
2017-12-21T01:18:48.949Z,14.00
2017-12-21T01:21:17.429Z,12.90
2017-12-21T01:23:45.709Z,12.75
2017-12-21T01:26:14.209Z,11.32
2017-12-21T01:28:43.168Z,14.50
2017-12-21T01:31:11.430Z,12.70
2017-12-21T01:33:39.928Z,11.93
2017-12-21T01:36:08.189Z,12.95
2017-12-21T01:38:36.569Z,12.68
2017-12-21T01:41:04.973Z,14.10
2017-12-21T01:43:34.468Z,11.65
2017-12-21T01:46:04.388Z,11.63
2017-12-21T01:48:32.969Z,10.63
2017-12-21T01:51:01.469Z,10.73
2017-12-21T01:53:30.728Z,8.93
2017-12-21T01:55:59.008Z,9.00
2017-12-21T01:58:27.509Z,9.60
2017-12-21T02:00:56.909Z,8.10
2017-12-21T02:03:26.108Z,8.35
2017-12-21T02:05:54.969Z,12.30
2017-12-21T02:08:23.369Z,10.40
2017-12-21T02:10:51.751Z,9.23
2017-12-21T02:13:20.929Z,8.18
2017-12-21T02:15:49.329Z,11.05
2017-12-21T02:18:18.488Z,9.68
2017-12-21T02:20:46.729Z,8.95
2017-12-21T02:23:15.249Z,7.82
2017-12-21T02:25:43.549Z,8.98
2017-12-21T02:28:12.089Z,8.63
2017-12-21T02:30:40.470Z,9.95
2017-12-21T02:33:08.949Z,7.87
2017-12-21T02:35:37.209Z,8.25
2017-12-21T02:38:05.428Z,11.23
2017-12-21T02:40:33.769Z,9.27
2017-12-21T02:43:02.089Z,8.43
2017-12-21T02:45:30.308Z,8.50
2017-12-21T02:47:58.749Z,8.70
2017-12-21T02:50:27.729Z,9.15
2017-12-21T02:52:56.208Z,11.68
2017-12-21T02:55:26.029Z,7.78
2017-12-21T02:57:54.249Z,8.40
2017-12-21T03:00:22.789Z,8.98
2017-12-21T03:02:51.368Z,7.57
2017-12-21T03:05:20.448Z,8.32
2017-12-21T03:07:48.929Z,6.93
2017-12-21T03:10:17.529Z,8.90
2017-12-21T03:12:46.829Z,7.30
2017-12-21T03:15:16.052Z,7.12
2017-12-21T03:17:44.589Z,6.97
2017-12-21T03:20:13.189Z,6.60
2017-12-21T03:22:42.129Z,7.70
2017-12-21T03:25:10.649Z,8.48
2017-12-21T03:27:39.209Z,8.48
2017-12-21T03:30:07.750Z,6.55
2017-12-21T03:32:36.088Z,6.18
2017-12-21T03:35:06.008Z,5.95
2017-12-21T03:37:34.549Z,7.28
2017-12-21T03:40:02.754Z,7.87
2017-12-21T03:42:31.208Z,7.43
2017-12-21T03:44:59.569Z,7.35
2017-12-21T03:47:27.989Z,6.65
2017-12-21T03:49:56.529Z,6.53
2017-12-21T03:52:24.749Z,7.20
2017-12-21T03:54:53.269Z,6.37
2017-12-21T03:57:21.608Z,5.72
2017-12-21T03:59:49.729Z,6.32
2017-12-21T04:02:17.949Z,6.85
2017-12-21T04:04:46.329Z,10.93
2017-12-21T04:07:14.709Z,7.75
2017-12-21T04:09:42.909Z,8.88
2017-12-21T04:12:12.249Z,9.82
2017-12-21T04:14:40.553Z,8.82
2017-12-21T04:17:08.929Z,8.52
2017-12-21T04:19:37.109Z,9.65
2017-12-21T04:22:05.250Z,8.98
2017-12-21T04:24:33.529Z,7.85
2017-12-21T04:27:01.730Z,7.20
2017-12-21T04:29:29.894Z,8.43
2017-12-21T04:32:00.029Z,7.40
2017-12-21T04:34:28.429Z,9.35
2017-12-21T04:36:57.097Z,10.40
2017-12-21T04:39:26.568Z,7.97
2017-12-21T04:41:54.930Z,9.43
2017-12-21T04:44:23.549Z,9.65
2017-12-21T04:46:52.089Z,11.05
2017-12-21T04:49:20.769Z,9.18
2017-12-21T04:51:49.309Z,7.47
2017-12-21T04:54:18.291Z,4.75
2017-12-21T04:56:46.610Z,3.90
2017-12-21T04:59:15.169Z,2.95
2017-12-21T05:01:44.648Z,10.30
2017-12-21T05:04:13.010Z,4.05
2017-12-21T05:06:41.135Z,4.55
2017-12-21T05:09:09.688Z,4.72
2017-12-21T05:11:37.949Z,5.93
2017-12-21T05:14:06.950Z,5.80
2017-12-21T05:16:35.449Z,4.22
2017-12-21T05:19:04.648Z,4.15
2017-12-21T05:21:33.569Z,5.30
2017-12-21T05:24:01.649Z,4.20
2017-12-21T05:26:29.849Z,4.47
2017-12-21T05:28:58.129Z,6.45
2017-12-21T05:31:26.549Z,6.43
2017-12-21T05:33:55.089Z,5.68
2017-12-21T05:36:23.368Z,4.65
2017-12-21T05:38:51.769Z,4.53
2017-12-21T05:41:20.829Z,4.20
2017-12-21T05:43:48.883Z,5.68
2017-12-21T05:46:17.188Z,5.65
2017-12-21T05:48:45.253Z,6.60
2017-12-21T05:51:13.290Z,14.32
2017-12-21T05:53:41.408Z,10.68
2017-12-21T05:56:10.729Z,5.22
2017-12-21T05:58:39.188Z,8.52
2017-12-21T06:01:08.449Z,6.62
2017-12-21T06:03:36.969Z,7.40
2017-12-21T06:06:05.269Z,5.35
2017-12-21T06:08:34.115Z,5.10
2017-12-21T06:11:02.458Z,10.30
2017-12-21T06:13:30.649Z,5.70
2017-12-21T06:15:58.734Z,5.43
2017-12-21T06:18:27.008Z,4.85
2017-12-21T06:20:55.356Z,6.20
2017-12-21T06:23:23.536Z,6.60
2017-12-21T06:25:51.736Z,9.85
2017-12-21T06:28:20.016Z,12.40
2017-12-21T06:30:48.196Z,13.75
2017-12-21T06:33:16.356Z,9.85
2017-12-21T06:35:44.755Z,9.73
2017-12-21T06:38:14.037Z,9.65
2017-12-21T06:40:42.102Z,8.65
2017-12-21T06:43:10.276Z,7.80
2017-12-21T06:45:38.797Z,12.13
2017-12-21T06:48:07.941Z,6.20
2017-12-21T06:50:36.355Z,8.27
2017-12-21T06:53:05.716Z,4.97
2017-12-21T06:55:34.457Z,4.80
2017-12-21T06:58:02.656Z,4.85
2017-12-21T07:00:31.316Z,8.07
2017-12-21T07:02:59.656Z,3.55
2017-12-21T07:05:27.676Z,4.30
2017-12-21T07:07:56.416Z,5.15
2017-12-21T07:10:24.736Z,5.10
2017-12-21T07:12:53.496Z,6.90
2017-12-21T07:15:22.879Z,4.47
2017-12-21T07:17:51.056Z,4.37
2017-12-21T07:20:19.037Z,4.85
2017-12-21T07:22:48.356Z,5.32
2017-12-21T07:25:16.796Z,5.75
2017-12-21T07:27:45.259Z,4.00
2017-12-21T07:30:13.856Z,7.05
2017-12-21T07:32:41.975Z,5.15
2017-12-21T07:35:10.277Z,6.87
2017-12-21T07:37:38.576Z,4.72
2017-12-21T07:40:06.717Z,7.32
2017-12-21T07:42:34.917Z,7.30
2017-12-21T07:45:03.119Z,3.97
2017-12-21T07:47:32.136Z,4.80
2017-12-21T07:50:00.485Z,4.90
2017-12-21T07:52:28.697Z,5.18
2017-12-21T07:54:56.823Z,6.07
2017-12-21T07:57:25.208Z,6.25
2017-12-21T07:59:53.688Z,9.80
2017-12-21T08:02:21.849Z,13.68
2017-12-21T08:04:51.047Z,10.05
2017-12-21T08:07:19.428Z,8.38
2017-12-21T08:09:47.608Z,7.30
2017-12-21T08:12:15.868Z,7.80
2017-12-21T08:14:44.247Z,8.88
2017-12-21T08:17:12.627Z,6.85
2017-12-21T08:19:40.668Z,11.85
2017-12-21T08:22:08.909Z,12.57
2017-12-21T08:24:37.273Z,8.98
2017-12-21T08:27:06.576Z,8.02
2017-12-21T08:29:35.795Z,8.75
2017-12-21T08:32:03.935Z,10.40
2017-12-21T08:34:33.068Z,10.00
2017-12-21T08:37:01.608Z,12.40
2017-12-21T08:39:30.969Z,10.80
2017-12-21T08:41:59.489Z,11.93
2017-12-21T08:44:27.788Z,9.57
2017-12-21T08:46:56.168Z,18.27
2017-12-21T08:49:25.548Z,8.63
2017-12-21T08:51:53.815Z,12.18
2017-12-21T08:54:22.296Z,11.45
2017-12-21T08:56:50.556Z,11.12
2017-12-21T08:59:18.935Z,9.73
2017-12-21T09:01:47.036Z,7.82
2017-12-21T09:04:16.437Z,6.90
2017-12-21T09:06:45.516Z,6.68
2017-12-21T09:09:13.995Z,7.45
2017-12-21T09:11:42.135Z,11.45
2017-12-21T09:14:10.236Z,6.53
2017-12-21T09:16:38.716Z,4.53
2017-12-21T09:19:07.261Z,4.60
2017-12-21T09:21:35.621Z,4.60
2017-12-21T09:24:03.963Z,4.70
2017-12-21T09:26:33.161Z,4.15
2017-12-21T09:29:02.141Z,5.22
2017-12-21T09:31:31.621Z,4.30
2017-12-21T09:34:00.022Z,2.83
2017-12-21T09:36:28.202Z,8.55
2017-12-21T09:38:56.742Z,6.78
2017-12-21T09:41:24.822Z,12.98
2017-12-21T09:43:52.981Z,4.40
2017-12-21T09:46:21.301Z,4.00
2017-12-21T09:48:49.680Z,18.23
2017-12-21T09:51:18.561Z,23.67
2017-12-21T09:53:46.840Z,10.80
2017-12-21T09:56:15.121Z,18.37
2017-12-21T09:58:43.181Z,6.28
2017-12-21T10:01:11.802Z,26.10
2017-12-21T10:03:41.280Z,42.05
2017-12-21T10:06:09.541Z,6.25
2017-12-21T10:08:38.042Z,15.13
2017-12-21T10:11:07.103Z,41.72
2017-12-21T10:13:35.602Z,13.10
2017-12-21T10:16:03.940Z,18.12
2017-12-21T10:18:32.600Z,7.40
2017-12-21T10:21:01.121Z,20.27
2017-12-21T10:23:29.401Z,10.93
2017-12-21T10:25:58.001Z,9.68
2017-12-21T10:28:26.280Z,11.95
2017-12-21T10:30:54.523Z,11.02
2017-12-21T10:33:22.820Z,15.60
2017-12-21T10:35:50.960Z,4.90
2017-12-21T10:38:19.281Z,9.73
2017-12-21T10:40:47.761Z,6.62
2017-12-21T10:43:15.921Z,4.70
2017-12-21T10:45:44.321Z,11.15
2017-12-21T10:48:12.793Z,11.18
2017-12-21T10:50:41.053Z,16.75
2017-12-21T10:53:09.313Z,9.38
2017-12-21T10:55:37.933Z,6.47
2017-12-21T10:58:06.293Z,7.10
2017-12-21T11:00:34.457Z,5.47
2017-12-21T11:03:03.052Z,9.20
2017-12-21T11:05:31.413Z,9.88
2017-12-21T11:07:59.713Z,14.27
2017-12-21T11:10:28.093Z,6.95
2017-12-21T11:12:57.395Z,10.45
2017-12-21T11:15:25.973Z,10.15
2017-12-21T11:17:55.267Z,9.52
2017-12-21T11:20:23.648Z,6.57
2017-12-21T11:22:51.929Z,26.80
2017-12-21T11:25:20.248Z,10.60
2017-12-21T11:27:48.787Z,30.02
2017-12-21T11:30:18.048Z,10.18
2017-12-21T11:32:46.148Z,8.40
2017-12-21T11:35:14.308Z,6.80
2017-12-21T11:37:42.428Z,23.48
2017-12-21T11:40:10.568Z,24.05
2017-12-21T11:42:38.948Z,30.17
2017-12-21T11:45:07.928Z,14.15
2017-12-21T11:47:36.408Z,23.75
2017-12-21T11:50:04.688Z,14.05
2017-12-21T11:52:33.848Z,15.60
2017-12-21T11:55:02.008Z,9.50
2017-12-21T11:57:30.448Z,14.18
2017-12-21T11:59:59.528Z,12.45
2017-12-21T12:02:27.708Z,17.17
2017-12-21T12:04:56.168Z,16.85
2017-12-21T12:07:24.488Z,10.88
2017-12-21T12:09:53.728Z,14.25
2017-12-21T12:12:22.348Z,17.10
2017-12-21T12:14:51.848Z,13.60
2017-12-21T12:17:20.337Z,16.50
2017-12-21T12:19:49.072Z,19.25
2017-12-21T12:22:17.569Z,26.33
2017-12-21T12:24:46.190Z,18.27
2017-12-21T12:27:15.592Z,21.27
2017-12-21T12:29:45.190Z,21.67
2017-12-21T12:32:13.390Z,18.80
2017-12-21T12:34:42.269Z,19.87
2017-12-21T12:37:11.450Z,23.08
2017-12-21T12:39:39.710Z,38.30
2017-12-21T12:42:07.984Z,25.55
2017-12-21T12:44:36.364Z,29.12
2017-12-21T12:47:04.845Z,24.10
2017-12-21T12:49:33.845Z,21.70
2017-12-21T12:52:02.435Z,26.12
2017-12-21T12:54:30.944Z,31.58
2017-12-21T12:56:59.392Z,24.50
2017-12-21T12:59:27.871Z,23.12
2017-12-21T13:01:56.030Z,19.35
2017-12-21T13:04:24.411Z,23.92
2017-12-21T13:06:52.912Z,23.45
2017-12-21T13:09:22.092Z,20.37
2017-12-21T13:11:50.571Z,29.63
2017-12-21T13:14:18.851Z,24.77
2017-12-21T13:16:47.031Z,21.75
2017-12-21T13:19:15.411Z,28.00
2017-12-21T13:21:43.571Z,29.95
2017-12-21T13:24:12.051Z,21.85
2017-12-21T13:26:41.351Z,25.55
2017-12-21T13:29:09.630Z,18.60
2017-12-21T13:31:37.714Z,33.42
2017-12-21T13:34:06.007Z,28.50
2017-12-21T13:36:35.088Z,17.73
2017-12-21T13:39:04.507Z,8.95
2017-12-21T13:41:33.667Z,24.25
2017-12-21T13:44:02.869Z,5.12
2017-12-21T13:46:32.069Z,6.50
2017-12-21T13:49:00.807Z,10.15
2017-12-21T13:51:29.307Z,9.18
2017-12-21T13:53:57.427Z,8.00
2017-12-21T13:56:26.387Z,6.82
2017-12-21T13:58:54.886Z,33.28
2017-12-21T14:01:23.247Z,5.93
2017-12-21T14:03:51.527Z,8.25
2017-12-21T14:06:19.807Z,7.78
2017-12-21T14:08:47.867Z,6.90
2017-12-21T14:11:16.147Z,6.68
2017-12-21T14:13:44.426Z,11.60
2017-12-21T14:16:12.707Z,7.80
2017-12-21T14:18:41.287Z,7.40
2017-12-21T14:21:09.767Z,7.87
2017-12-21T14:23:38.007Z,7.03
2017-12-21T14:26:06.288Z,10.43
2017-12-21T14:28:34.827Z,11.82
2017-12-21T14:31:04.207Z,9.90
2017-12-21T14:33:32.588Z,5.85
2017-12-21T14:36:02.007Z,6.10
2017-12-21T14:38:31.247Z,7.93
2017-12-21T14:40:59.547Z,7.62
2017-12-21T14:43:27.827Z,10.38
2017-12-21T14:45:56.208Z,10.23
2017-12-21T14:48:26.109Z,6.80
2017-12-21T14:50:54.507Z,5.20
2017-12-21T14:53:22.767Z,7.60
2017-12-21T14:55:50.907Z,6.82
2017-12-21T14:58:19.207Z,7.15
2017-12-21T15:00:47.454Z,5.37
2017-12-21T15:03:15.766Z,6.80
2017-12-21T15:05:43.807Z,7.50
2017-12-21T15:08:12.087Z,9.05
2017-12-21T15:10:40.487Z,7.03
2017-12-21T15:13:08.687Z,10.20
2017-12-21T15:15:37.769Z,8.85
2017-12-21T15:18:06.870Z,8.07
2017-12-21T15:20:35.986Z,12.00
2017-12-21T15:23:04.398Z,11.27
2017-12-21T15:25:32.710Z,11.52
2017-12-21T15:28:01.089Z,8.80
2017-12-21T15:30:29.038Z,8.90
2017-12-21T15:32:58.134Z,8.52
2017-12-21T15:35:26.635Z,7.87
2017-12-21T15:37:54.918Z,10.35
2017-12-21T15:40:24.315Z,20.75
2017-12-21T15:42:53.615Z,15.73
2017-12-21T15:45:22.757Z,12.15
2017-12-21T15:47:51.296Z,25.95
2017-12-21T15:50:20.555Z,15.10
2017-12-21T15:52:48.835Z,17.87
2017-12-21T15:55:17.354Z,19.10
2017-12-21T15:57:46.736Z,19.73
2017-12-21T16:00:15.016Z,25.45
2017-12-21T16:02:43.495Z,22.37
2017-12-21T16:05:11.776Z,18.23
2017-12-21T16:07:40.875Z,22.92
2017-12-21T16:10:09.420Z,20.60
2017-12-21T16:12:37.805Z,18.33
2017-12-21T16:15:06.192Z,20.23
2017-12-21T16:17:34.368Z,20.37
2017-12-21T16:20:02.648Z,25.30
2017-12-21T16:22:31.209Z,22.48
2017-12-21T16:24:59.502Z,22.48
2017-12-21T16:27:27.889Z,23.73
2017-12-21T16:29:57.087Z,22.25
2017-12-21T16:32:25.248Z,23.12
2017-12-21T16:34:53.628Z,23.20
2017-12-21T16:37:22.222Z,21.15
2017-12-21T16:39:50.443Z,22.05
2017-12-21T16:42:18.668Z,21.67
2017-12-21T16:44:47.142Z,22.70
2017-12-21T16:47:15.582Z,27.40
2017-12-21T16:49:44.683Z,24.30
2017-12-21T16:52:13.102Z,26.35
2017-12-21T16:54:42.122Z,26.15
2017-12-21T16:57:10.684Z,24.37
2017-12-21T16:59:39.954Z,25.42
2017-12-21T17:02:08.342Z,30.45
2017-12-21T17:04:36.634Z,28.30
2017-12-21T17:07:04.906Z,24.58
2017-12-21T17:09:33.107Z,24.70
2017-12-21T17:12:01.666Z,21.02
2017-12-21T17:14:29.926Z,21.92
2017-12-21T17:16:58.086Z,30.25
2017-12-21T17:19:26.560Z,25.48
2017-12-21T17:21:55.066Z,25.70
2017-12-21T17:24:23.523Z,34.30
2017-12-21T17:26:52.056Z,17.05
2017-12-21T17:29:20.306Z,18.02
2017-12-21T17:31:48.792Z,18.45
2017-12-21T17:34:17.466Z,18.02
2017-12-21T17:36:46.047Z,18.37
2017-12-21T17:39:14.326Z,46.83
2017-12-21T17:41:42.705Z,18.45
2017-12-21T17:44:11.205Z,21.37
2017-12-21T17:46:40.487Z,23.55
2017-12-21T17:49:09.586Z,20.33
2017-12-21T17:51:38.086Z,28.48
2017-12-21T17:54:07.366Z,26.98
2017-12-21T17:56:35.945Z,55.60
2017-12-21T17:59:04.526Z,26.37
2017-12-21T18:01:32.886Z,28.12
2017-12-21T18:04:01.586Z,27.83
2017-12-21T18:06:29.886Z,30.33
2017-12-21T18:08:58.948Z,21.80
2017-12-21T18:11:27.526Z,31.27
2017-12-21T18:13:56.074Z,18.98
2017-12-21T18:16:24.806Z,19.62
2017-12-21T18:18:53.266Z,17.50
2017-12-21T18:21:21.606Z,15.82
2017-12-21T18:23:49.746Z,17.37
2017-12-21T18:26:18.786Z,14.35
2017-12-21T18:28:47.205Z,20.08
2017-12-21T18:31:15.446Z,17.73
2017-12-21T18:33:43.565Z,15.82
2017-12-21T18:36:12.667Z,14.32
2017-12-21T18:38:41.826Z,15.27
2017-12-21T18:41:10.286Z,17.67
2017-12-21T18:43:38.706Z,18.58
2017-12-21T18:46:06.766Z,13.93
2017-12-21T18:48:35.166Z,15.00
2017-12-21T18:51:04.146Z,12.35
2017-12-21T18:53:32.726Z,13.02
2017-12-21T18:56:01.526Z,10.05
2017-12-21T18:58:31.026Z,10.85
2017-12-21T19:00:59.665Z,14.00
2017-12-21T19:03:28.166Z,10.50
2017-12-21T19:05:56.733Z,9.52
2017-12-21T19:08:25.266Z,9.43
2017-12-21T19:10:54.526Z,9.23
2017-12-21T19:13:22.906Z,11.57
2017-12-21T19:15:51.206Z,7.40
2017-12-21T19:18:20.425Z,12.52
2017-12-21T19:20:50.746Z,12.45
2017-12-21T19:23:19.906Z,8.93
2017-12-21T19:25:48.306Z,9.63
2017-12-21T19:28:17.546Z,11.48
2017-12-21T19:30:45.871Z,10.13
2017-12-21T19:33:14.206Z,8.90
2017-12-21T19:35:42.406Z,8.65
2017-12-21T19:38:10.785Z,9.00
2017-12-21T19:40:39.226Z,9.32
2017-12-21T19:43:07.646Z,10.52
2017-12-21T19:45:36.015Z,10.07
2017-12-21T19:48:04.514Z,11.38
2017-12-21T19:50:33.355Z,11.05
2017-12-21T19:53:01.674Z,20.55
2017-12-21T19:55:29.994Z,18.87
2017-12-21T19:57:58.595Z,20.23
2017-12-21T20:00:28.142Z,19.25
2017-12-21T20:02:56.733Z,19.23
2017-12-21T20:05:25.315Z,17.00
2017-12-21T20:07:55.214Z,18.55
2017-12-21T20:10:23.917Z,18.20
2017-12-21T20:12:52.174Z,18.33
2017-12-21T20:15:20.753Z,18.00
2017-12-21T20:17:49.254Z,20.33
2017-12-21T20:20:17.629Z,17.92
2017-12-21T20:22:45.971Z,18.85
2017-12-21T20:25:14.429Z,18.73
2017-12-21T20:27:42.791Z,20.88
2017-12-21T20:30:11.269Z,19.30
2017-12-21T20:32:39.773Z,19.02
2017-12-21T20:35:08.029Z,20.73
2017-12-21T20:37:36.469Z,19.23
2017-12-21T20:40:04.789Z,19.30
2017-12-21T20:42:33.009Z,17.50
2017-12-21T20:45:01.509Z,19.05
2017-12-21T20:47:29.989Z,17.55
2017-12-21T20:49:58.070Z,16.62
2017-12-21T20:52:27.031Z,17.30
2017-12-21T20:54:55.409Z,17.23
2017-12-21T20:57:23.909Z,16.27
2017-12-21T20:59:52.490Z,18.08
2017-12-21T21:02:21.129Z,18.85
2017-12-21T21:04:49.649Z,16.45
2017-12-21T21:07:17.869Z,19.87
2017-12-21T21:09:46.372Z,17.05
2017-12-21T21:12:14.710Z,16.58
2017-12-21T21:14:44.049Z,17.35
2017-12-21T21:17:12.629Z,15.10
2017-12-21T21:19:41.049Z,16.95
2017-12-21T21:22:09.528Z,14.50
2017-12-21T21:24:37.890Z,12.50
2017-12-21T21:27:06.189Z,13.65
2017-12-21T21:29:35.189Z,14.55
2017-12-21T21:32:04.149Z,15.45
2017-12-21T21:34:32.329Z,13.60
2017-12-21T21:37:00.909Z,16.95
2017-12-21T21:39:29.509Z,14.23
2017-12-21T21:41:58.189Z,15.85
2017-12-21T21:44:26.549Z,16.30
2017-12-21T21:46:54.729Z,15.05
2017-12-21T21:49:23.333Z,15.70
2017-12-21T21:51:52.509Z,13.60
2017-12-21T21:54:21.129Z,14.57
2017-12-21T21:56:49.691Z,16.25
2017-12-21T21:59:18.009Z,17.73
2017-12-21T22:01:46.328Z,39.78
2017-12-21T22:04:14.930Z,14.40
2017-12-21T22:06:44.109Z,14.48
2017-12-21T22:09:12.288Z,12.90
2017-12-21T22:11:40.869Z,15.00
2017-12-21T22:14:09.209Z,15.00
2017-12-21T22:16:37.611Z,14.30
2017-12-21T22:19:05.895Z,15.68
2017-12-21T22:21:34.353Z,17.92
2017-12-21T22:24:03.073Z,15.10
2017-12-21T22:26:32.154Z,14.85
2017-12-21T22:29:00.633Z,17.10
2017-12-21T22:31:28.993Z,20.52
2017-12-21T22:33:57.233Z,21.55
2017-12-21T22:36:26.653Z,18.20
2017-12-21T22:38:55.275Z,18.95
2017-12-21T22:41:23.533Z,18.42
2017-12-21T22:43:52.135Z,16.83
2017-12-21T22:46:20.494Z,18.95
2017-12-21T22:48:48.894Z,18.50
2017-12-21T22:51:18.713Z,16.33
2017-12-21T22:53:47.026Z,14.82
2017-12-21T22:56:15.176Z,14.77
2017-12-21T22:58:44.454Z,14.68
2017-12-21T23:01:12.734Z,14.35
2017-12-21T23:03:41.813Z,14.52
2017-12-21T23:06:10.093Z,13.10
2017-12-21T23:08:38.273Z,13.65
2017-12-21T23:11:06.434Z,11.40
2017-12-21T23:13:34.714Z,9.93
2017-12-21T23:16:03.093Z,14.35
2017-12-21T23:18:31.373Z,15.38
2017-12-21T23:20:59.953Z,16.00
2017-12-21T23:23:28.533Z,16.83
2017-12-21T23:25:56.933Z,12.63
2017-12-21T23:28:26.193Z,12.98
2017-12-21T23:30:54.453Z,13.43
2017-12-21T23:33:22.807Z,13.13
2017-12-21T23:35:51.127Z,12.23
2017-12-21T23:38:19.407Z,11.65
2017-12-21T23:40:47.687Z,11.93
2017-12-21T23:43:18.006Z,11.40
2017-12-21T23:45:46.606Z,10.32
2017-12-21T23:48:16.206Z,11.12
2017-12-21T23:50:44.646Z,13.07
2017-12-21T23:53:13.086Z,12.70
2017-12-21T23:55:42.306Z,11.02
2017-12-21T23:58:10.746Z,9.05
